South Camden, New Jersey
Current Conditions -  °F | °C
As of 9:06 AM on Monday 26 Jan 2015 (Local Time) from KPHL Reporting Station
Light Snow Light Snow  
Wind Chill: 17°   Ceiling: 1500
Heat Index: 28°   Visibility: 1.5mi
Dew Point: 23°   Wind: 13mph
Humidity: 81%   Direction: 50°NE
Pressure: 29.91"   Gusts: 22mph
Location:  39.9206°N, 75.1123°W
Report Text: KPHL 261406Z 05011G19KT 1 1/2SM -SN BKN015 OVC033 M02/M05 A2991 RMK AO2 P0000 T10221050
Loading
Personal Weather Stations






























Interactive Weather Map New forecast layout! Learn more

10-Day Weather Forecast

Advertisements
Track Severe Weather on mobile